Time;durP1;ratioP1;P1;durP2;ratioP2;P2;SDS_P1;SDS_P2;PMS_P1;PMS_P2;Temp;Humidity;BMP_temperature;BMP_pressure;BME280_temperature;BME280_humidity;BME280_pressure;Samples;Min_cycle;Max_cycle;Signal;HPM_P1;HPM_P2
2022/10/15 00:02:22;;;;;;;;;;;;;;;11.55;59.82;99956.37;4470958;32;20017;-90
2022/10/15 00:04:48;;;;;;;;;;;;;;;11.53;59.82;99947.75;4472589;32;26750;-89
2022/10/15 00:07:13;;;;;;;;;;;;;;;11.60;59.83;99951.88;4472633;32;19988;-90
2022/10/15 00:09:38;;;;;;;;;;;;;;;11.51;59.81;99959.97;4480825;31;19957;-91
2022/10/15 00:12:04;;;;;;;;;;;;;;;11.35;59.80;99960.47;4464956;31;19984;-89
2022/10/15 00:14:29;;;;;;;;;;;;;;;11.54;59.82;99957.28;4457547;32;19992;-90
2022/10/15 00:16:54;;;;;;;;;;;;;;;11.54;59.82;99952.06;4471625;32;19965;-90
2022/10/15 00:19:19;;;;;;;;;;;;;;;11.49;59.81;99949.59;4470896;32;28058;-89
2022/10/15 00:21:44;;;;;;;;;;;;;;;11.44;59.80;99953.28;4469740;32;23994;-89
2022/10/15 00:24:10;;;;;;;;;;;;;;;11.44;59.81;99956.72;4470871;32;29973;-90
2022/10/15 00:26:35;;;;;;;;;;;;;;;11.48;59.82;99952.28;4470346;32;20011;-90
2022/10/15 00:29:01;;;;;;;;;;;;;;;11.40;59.81;99957.75;4470737;32;29790;-89
2022/10/15 00:31:27;;;;;;;;;;;;;;;11.38;59.81;99960.41;4457158;32;20016;-89
2022/10/15 00:33:53;;;;;;;;;;;;;;;11.48;59.82;99957.47;4457106;32;19997;-89
2022/10/15 00:36:19;;;;;;;;;;;;;;;11.57;59.81;99946.75;4470113;32;20002;-88
2022/10/15 00:38:44;;;;;;;;;;;;;;;11.55;59.82;99940.72;4457036;32;19985;-89
2022/10/15 00:41:13;;;;;;;;;;;;;;;11.42;59.81;99950.72;4470272;32;19984;-89
2022/10/15 00:43:39;;;;;;;;;;;;;;;11.44;59.81;99942.84;4470193;32;19992;-89
2022/10/15 00:46:04;;;;;;;;;;;;;;;11.50;59.81;99945.25;4471352;32;20302;-89
2022/10/15 00:48:29;;;;;;;;;;;;;;;11.49;59.81;99933.13;4456149;32;20029;-89
2022/10/15 00:50:54;;;;;;;;;;;;;;;11.28;59.80;99930.28;4456634;32;22590;-89
2022/10/15 00:53:20;;;;;;;;;;;;;;;11.49;59.81;99930.50;4456605;32;26540;-90
2022/10/15 00:55:45;;;;;;;;;;;;;;;11.33;59.80;99927.53;4456500;32;28415;-90
2022/10/15 00:58:12;;;;;;;;;;;;;;;11.40;59.81;99925.59;4456980;32;19981;-90
2022/10/15 01:00:37;;;;;;;;;;;;;;;11.29;59.80;99918.13;4457200;32;20000;-92
2022/10/15 01:03:03;;;;;;;;;;;;;;;11.24;59.80;99928.69;4456671;32;21223;-92
2022/10/15 01:05:28;;;;;;;;;;;;;;;11.23;59.80;99924.37;4456537;32;28778;-91
2022/10/15 01:07:53;;;;;;;;;;;;;;;11.30;59.80;99919.81;4457297;32;20253;-92
2022/10/15 01:10:19;;;;;;;;;;;;;;;11.33;59.81;99917.13;4469462;32;27514;-89
2022/10/15 01:12:47;;;;;;;;;;;;;;;11.28;59.80;99919.03;4470114;32;19981;-89
2022/10/15 01:15:21;;;;;;;;;;;;;;;11.19;59.80;99919.31;4471253;32;20322;-89
2022/10/15 01:17:49;;;;;;;;;;;;;;;11.10;59.79;99917.84;4470484;32;20030;-89
2022/10/15 01:20:19;;;;;;;;;;;;;;;11.21;59.79;99914.91;4457331;32;20003;-89
2022/10/15 01:22:51;;;;;;;;;;;;;;;11.22;59.80;99916.63;4470716;32;19988;-88
2022/10/15 01:25:23;;;;;;;;;;;;;;;11.32;59.81;99908.44;4458184;32;20028;-89
2022/10/15 01:27:53;;;;;;;;;;;;;;;11.29;59.80;99915.50;4471854;32;20032;-89
2022/10/15 01:30:18;;;;;;;;;;;;;;;11.23;59.80;99919.19;4478656;31;19958;-90
2022/10/15 01:32:56;;;;;;;;;;;;;;;11.24;59.80;99910.47;4478018;31;20019;-90
2022/10/15 01:35:22;;;;;;;;;;;;;;;11.19;59.79;99911.50;4470337;32;20471;-89
2022/10/15 01:37:54;;;;;;;;;;;;;;;11.20;59.80;99905.41;4470978;32;19993;-89
2022/10/15 01:40:21;;;;;;;;;;;;;;;11.20;59.80;99903.66;4471083;32;19977;-89
2022/10/15 01:42:52;;;;;;;;;;;;;;;11.16;59.80;99912.47;4456664;32;20060;-89
2022/10/15 01:45:24;;;;;;;;;;;;;;;11.21;59.79;99902.75;4471061;32;19973;-89
2022/10/15 01:47:50;;;;;;;;;;;;;;;11.16;59.80;99909.87;4478438;32;19983;-89
2022/10/15 01:50:16;;;;;;;;;;;;;;;11.21;59.80;99910.56;4459192;32;19993;-89
2022/10/15 01:52:41;;;;;;;;;;;;;;;11.29;59.80;99905.94;4486540;32;20020;-89
2022/10/15 01:55:08;;;;;;;;;;;;;;;11.17;59.80;99900.28;4471597;32;28070;-90
2022/10/15 01:57:33;;;;;;;;;;;;;;;11.19;59.79;99901.94;4459067;32;20017;-89
2022/10/15 01:59:58;;;;;;;;;;;;;;;11.23;59.80;99903.53;4458951;32;20321;-89
2022/10/15 02:02:24;;;;;;;;;;;;;;;11.10;59.80;99911.78;4472018;32;20016;-89
2022/10/15 02:04:49;;;;;;;;;;;;;;;11.28;59.80;99912.06;4472212;32;19977;-90
2022/10/15 02:07:15;;;;;;;;;;;;;;;11.37;59.81;99903.97;4472174;32;20245;-89
2022/10/15 02:09:42;;;;;;;;;;;;;;;11.26;59.80;99910.41;4472106;32;19976;-89
2022/10/15 02:12:21;;;;;;;;;;;;;;;11.20;59.79;99902.78;4472178;32;19996;-89
2022/10/15 02:14:53;;;;;;;;;;;;;;;11.21;59.80;99904.50;4458918;32;19977;-88
2022/10/15 02:17:20;;;;;;;;;;;;;;;11.06;59.78;99908.44;4459129;32;20019;-89
2022/10/15 02:19:45;;;;;;;;;;;;;;;11.11;59.79;99916.94;4472039;32;20067;-89
2022/10/15 02:22:10;;;;;;;;;;;;;;;11.10;59.80;99914.38;4471887;32;19991;-88
2022/10/15 02:24:56;;;;;;;;;;;;;;;11.02;59.79;99915.50;4471850;32;19980;-87
2022/10/15 02:27:21;;;;;;;;;;;;;;;11.04;59.78;99913.69;4485901;32;19969;-88
2022/10/15 02:29:47;;;;;;;;;;;;;;;11.07;59.79;99907.53;4472119;32;20000;-88
2022/10/15 02:32:13;;;;;;;;;;;;;;;11.08;59.80;99902.25;4458769;32;19992;-88
2022/10/15 02:34:38;;;;;;;;;;;;;;;11.05;59.79;99901.50;4458750;32;19996;-88
2022/10/15 02:37:03;;;;;;;;;;;;;;;11.05;59.79;99894.56;4487467;32;32557;-88
2022/10/15 02:39:29;;;;;;;;;;;;;;;10.89;59.78;99900.31;4488420;32;19977;-88
2022/10/15 02:41:54;;;;;;;;;;;;;;;11.10;59.79;99889.19;4487700;32;19987;-87
2022/10/15 02:44:19;;;;;;;;;;;;;;;11.00;59.79;99896.47;4472095;32;20021;-88
2022/10/15 02:46:44;;;;;;;;;;;;;;;10.99;59.79;99892.16;4459605;32;20380;-88
2022/10/15 02:49:10;;;;;;;;;;;;;;;10.97;59.78;99898.31;4488078;32;20015;-88
2022/10/15 02:51:35;;;;;;;;;;;;;;;10.87;59.78;99900.31;4497003;32;26201;-90
2022/10/15 02:54:01;;;;;;;;;;;;;;;10.82;59.78;99896.16;4475063;32;20017;-88
2022/10/15 02:56:26;;;;;;;;;;;;;;;10.89;59.78;99895.09;4473927;32;19972;-89
2022/10/15 02:58:51;;;;;;;;;;;;;;;10.91;59.78;99899.34;4473309;32;33116;-88
2022/10/15 03:01:16;;;;;;;;;;;;;;;10.89;59.78;99889.91;4473167;32;33081;-89
2022/10/15 03:03:42;;;;;;;;;;;;;;;10.89;59.78;99882.94;4459169;32;21163;-89
2022/10/15 03:06:07;;;;;;;;;;;;;;;10.85;59.78;99886.50;4485677;32;19976;-89
2022/10/15 03:08:32;;;;;;;;;;;;;;;10.94;59.79;99888.84;4471181;32;19997;-89
2022/10/15 03:11:00;;;;;;;;;;;;;;;11.01;59.79;99872.13;4458292;32;36535;-89
2022/10/15 03:13:26;;;;;;;;;;;;;;;11.06;59.78;99875.41;4460251;32;19976;-88
2022/10/15 03:15:51;;;;;;;;;;;;;;;11.17;59.80;99872.47;4460371;32;19989;-89
2022/10/15 03:18:16;;;;;;;;;;;;;;;11.22;59.79;99872.31;4487089;32;21780;-89
2022/10/15 03:20:41;;;;;;;;;;;;;;;11.14;59.79;99884.75;4473229;32;20038;-89
2022/10/15 03:23:07;;;;;;;;;;;;;;;10.98;59.78;99881.78;4487538;32;19960;-90
2022/10/15 03:25:32;;;;;;;;;;;;;;;10.97;59.78;99877.47;4472826;32;25455;-89
2022/10/15 03:27:57;;;;;;;;;;;;;;;11.07;59.79;99863.25;4472571;32;26472;-89
2022/10/15 03:30:22;;;;;;;;;;;;;;;11.03;59.79;99870.31;4473074;32;20329;-90
2022/10/15 03:32:48;;;;;;;;;;;;;;;11.00;59.79;99878.22;4472784;32;21779;-90
2022/10/15 03:35:13;;;;;;;;;;;;;;;10.92;59.79;99887.19;4487660;32;20013;-90
2022/10/15 03:37:38;;;;;;;;;;;;;;;10.94;59.79;99886.25;4473264;32;20254;-90
2022/10/15 03:40:03;;;;;;;;;;;;;;;11.15;59.79;99879.50;4472598;32;27036;-89
2022/10/15 03:42:29;;;;;;;;;;;;;;;10.98;59.78;99887.00;4487534;32;19996;-90
2022/10/15 03:44:54;;;;;;;;;;;;;;;11.05;59.78;99888.50;4486869;32;31280;-88
2022/10/15 03:47:19;;;;;;;;;;;;;;;11.00;59.79;99885.19;4487335;32;20329;-89
2022/10/15 03:49:44;;;;;;;;;;;;;;;10.95;59.79;99881.88;4472915;32;19992;-88
2022/10/15 03:52:09;;;;;;;;;;;;;;;11.05;59.79;99884.13;4472557;32;19977;-88
2022/10/15 03:54:35;;;;;;;;;;;;;;;10.99;59.79;99888.69;4472671;32;22235;-89
2022/10/15 03:57:00;;;;;;;;;;;;;;;11.00;59.79;99895.59;4472666;32;24756;-88
2022/10/15 03:59:25;;;;;;;;;;;;;;;10.96;59.79;99887.03;4486974;32;28450;-88
2022/10/15 04:01:50;;;;;;;;;;;;;;;10.98;59.78;99879.19;4473162;32;21278;-89
2022/10/15 04:04:15;;;;;;;;;;;;;;;11.05;59.79;99883.28;4473891;32;19976;-88
2022/10/15 04:06:41;;;;;;;;;;;;;;;11.10;59.80;99883.12;4488001;32;25531;-88
2022/10/15 04:09:06;;;;;;;;;;;;;;;10.96;59.79;99879.22;4489771;32;20039;-89
2022/10/15 04:11:31;;;;;;;;;;;;;;;10.86;59.78;99876.94;4496892;31;20000;-88
2022/10/15 04:13:57;;;;;;;;;;;;;;;10.83;59.78;99871.84;4478073;31;30259;-88
2022/10/15 04:16:22;;;;;;;;;;;;;;;10.93;59.78;99878.47;4459247;32;30766;-89
2022/10/15 04:18:47;;;;;;;;;;;;;;;10.82;59.78;99875.34;4459085;32;33712;-89
2022/10/15 04:21:12;;;;;;;;;;;;;;;10.96;59.79;99876.63;4459548;32;20182;-87
2022/10/15 04:23:38;;;;;;;;;;;;;;;10.87;59.78;99876.03;4486536;32;20309;-87
2022/10/15 04:26:03;;;;;;;;;;;;;;;10.78;59.78;99874.59;4472990;32;20011;-87
2022/10/15 04:28:28;;;;;;;;;;;;;;;10.94;59.79;99874.97;4472985;32;20249;-87
2022/10/15 04:30:57;;;;;;;;;;;;;;;10.74;59.77;99872.97;4459795;32;19989;-88
2022/10/15 04:33:22;;;;;;;;;;;;;;;10.66;59.77;99885.38;4472676;32;20392;-88
2022/10/15 04:35:56;;;;;;;;;;;;;;;10.58;59.76;99893.41;4472771;32;19998;-88
2022/10/15 04:38:21;;;;;;;;;;;;;;;10.63;59.77;99891.50;4487159;32;20087;-88
2022/10/15 04:40:46;;;;;;;;;;;;;;;10.61;59.76;99890.69;4472055;32;20965;-87
2022/10/15 04:43:11;;;;;;;;;;;;;;;10.62;59.76;99896.75;4486463;32;26915;-87
2022/10/15 04:45:37;;;;;;;;;;;;;;;10.47;59.75;99894.63;4471578;32;37688;-88
2022/10/15 04:48:02;;;;;;;;;;;;;;;10.38;59.75;99893.13;4458631;32;35907;-88
2022/10/15 04:50:27;;;;;;;;;;;;;;;10.44;59.76;99892.97;4472263;32;20598;-88
2022/10/15 04:52:52;;;;;;;;;;;;;;;10.44;59.76;99893.81;4486357;32;30621;-89
2022/10/15 04:55:17;;;;;;;;;;;;;;;10.22;59.74;99889.28;4459282;32;27650;-88
2022/10/15 04:57:43;;;;;;;;;;;;;;;10.23;59.74;99880.59;4471983;32;26274;-87
2022/10/15 05:00:08;;;;;;;;;;;;;;;10.31;59.75;99883.81;4459254;32;29412;-87
2022/10/15 05:02:33;;;;;;;;;;;;;;;10.33;59.75;99898.47;4474363;32;19984;-88
2022/10/15 05:04:59;;;;;;;;;;;;;;;10.32;59.76;99901.97;4474145;32;20616;-88
2022/10/15 05:07:24;;;;;;;;;;;;;;;10.44;59.76;99895.56;4488314;32;20336;-87
2022/10/15 05:09:50;;;;;;;;;;;;;;;10.41;59.75;99899.12;4491192;32;19980;-88
2022/10/15 05:12:15;;;;;;;;;;;;;;;10.44;59.76;99888.63;4474013;32;19981;-88
2022/10/15 05:14:40;;;;;;;;;;;;;;;10.43;59.76;99889.53;4459033;32;27598;-87
2022/10/15 05:17:05;;;;;;;;;;;;;;;10.54;59.75;99891.78;4472473;32;19992;-87
2022/10/15 05:19:31;;;;;;;;;;;;;;;10.58;59.76;99900.34;4458844;32;38896;-86
2022/10/15 05:21:56;;;;;;;;;;;;;;;10.53;59.76;99897.06;4486367;32;33582;-86
2022/10/15 05:24:21;;;;;;;;;;;;;;;10.50;59.76;99903.19;4472207;32;33672;-87
2022/10/15 05:26:46;;;;;;;;;;;;;;;10.47;59.75;99897.22;4472931;32;34175;-86
2022/10/15 05:29:12;;;;;;;;;;;;;;;10.75;59.77;99901.56;4474476;32;20043;-88
2022/10/15 05:31:37;;;;;;;;;;;;;;;10.54;59.76;99899.59;4482767;31;28684;-88
2022/10/15 05:34:19;;;;;;;;;;;;;;;10.55;59.76;99897.84;4492377;32;28168;-94
2022/10/15 05:36:44;;;;;;;;;;;;;;;10.49;59.76;99898.88;4465287;32;20046;-90
2022/10/15 05:39:11;;;;;;;;;;;;;;;10.42;59.75;99889.56;4458409;32;20016;-86
2022/10/15 05:41:36;;;;;;;;;;;;;;;10.48;59.76;99885.94;4483446;32;20293;-87
2022/10/15 05:44:01;;;;;;;;;;;;;;;10.62;59.76;99881.16;4470553;32;20009;-87
2022/10/15 05:46:26;;;;;;;;;;;;;;;10.60;59.76;99889.00;4443414;32;19981;-90
2022/10/15 05:48:52;;;;;;;;;;;;;;;10.65;59.76;99884.53;4443242;32;20365;-89
2022/10/15 05:51:17;;;;;;;;;;;;;;;10.72;59.77;99896.47;4456486;32;19977;-90
2022/10/15 05:53:45;;;;;;;;;;;;;;;10.80;59.77;99890.16;4455375;32;33730;-87
2022/10/15 05:56:10;;;;;;;;;;;;;;;10.73;59.77;99895.56;4456624;32;20020;-88
2022/10/15 05:58:35;;;;;;;;;;;;;;;10.90;59.78;99897.66;4456046;32;20341;-87
2022/10/15 06:01:01;;;;;;;;;;;;;;;10.94;59.79;99894.06;4456353;32;20022;-86
2022/10/15 06:03:26;;;;;;;;;;;;;;;10.98;59.78;99892.19;4469836;32;20323;-86
2022/10/15 06:05:51;;;;;;;;;;;;;;;11.09;59.79;99897.91;4456096;32;19993;-87
2022/10/15 06:08:17;;;;;;;;;;;;;;;11.12;59.79;99886.53;4456028;32;20261;-86
2022/10/15 06:10:42;;;;;;;;;;;;;;;11.29;59.79;99902.47;4456998;32;20012;-86
2022/10/15 06:13:07;;;;;;;;;;;;;;;11.49;59.81;99900.09;4473378;32;19988;-87
2022/10/15 06:15:33;;;;;;;;;;;;;;;11.52;59.81;99912.16;4443420;32;20266;-87
2022/10/15 06:17:58;;;;;;;;;;;;;;;11.67;59.82;99922.09;4456302;32;19965;-87
2022/10/15 06:20:23;;;;;;;;;;;;;;;11.78;59.83;99919.97;4455951;32;20243;-86
2022/10/15 06:22:48;;;;;;;;;;;;;;;11.82;59.82;99921.56;4455085;32;23649;-87
2022/10/15 06:25:14;;;;;;;;;;;;;;;11.94;59.84;99917.72;4455209;32;35897;-87
2022/10/15 06:27:39;;;;;;;;;;;;;;;12.16;59.85;99918.66;4455538;32;24352;-87
2022/10/15 06:30:04;;;;;;;;;;;;;;;12.35;59.85;99918.84;4455839;32;20043;-87
2022/10/15 06:32:30;;;;;;;;;;;;;;;12.42;59.88;99917.72;4456283;32;19996;-87
2022/10/15 06:34:55;;;;;;;;;;;;;;;12.75;59.89;99927.78;4455832;32;19988;-88
2022/10/15 06:37:20;;;;;;;;;;;;;;;12.85;59.89;99926.53;4456258;32;19972;-87
2022/10/15 06:39:45;;;;;;;;;;;;;;;13.00;59.90;99919.84;4455690;32;27606;-88
2022/10/15 06:42:11;;;;;;;;;;;;;;;13.24;59.90;99923.28;4442976;32;22610;-87
2022/10/15 06:44:36;;;;;;;;;;;;;;;13.35;59.91;99918.50;4456787;32;19993;-88
2022/10/15 06:47:01;;;;;;;;;;;;;;;13.55;59.92;99922.91;4445413;32;21627;-87
2022/10/15 06:49:26;;;;;;;;;;;;;;;13.60;59.92;99924.44;4459433;32;19964;-87
2022/10/15 06:51:52;;;;;;;;;;;;;;;13.69;59.93;99926.66;4467864;32;20038;-90
2022/10/15 06:54:17;;;;;;;;;;;;;;;13.82;59.94;99927.00;4476792;32;24194;-87
2022/10/15 06:56:42;;;;;;;;;;;;;;;14.01;59.94;99927.91;4458101;32;20012;-87
2022/10/15 06:59:07;;;;;;;;;;;;;;;13.96;59.95;99934.25;4457171;32;20265;-87
2022/10/15 07:01:33;;;;;;;;;;;;;;;13.99;59.95;99936.75;4457614;32;20227;-88
2022/10/15 07:03:58;;;;;;;;;;;;;;;14.16;59.96;99944.69;4471539;32;22740;-87
2022/10/15 07:06:24;;;;;;;;;;;;;;;14.17;59.96;99940.31;4457060;32;29734;-88
2022/10/15 07:08:49;;;;;;;;;;;;;;;14.33;59.96;99942.19;4457635;32;20025;-87
2022/10/15 07:11:15;;;;;;;;;;;;;;;14.29;59.96;99945.03;4444742;32;19993;-88
2022/10/15 07:13:41;;;;;;;;;;;;;;;14.48;59.97;99942.47;4444639;32;20015;-88
2022/10/15 07:16:07;;;;;;;;;;;;;;;14.61;59.98;99930.50;4445156;32;20007;-87
2022/10/15 07:18:32;;;;;;;;;;;;;;;14.59;59.98;99938.44;4444818;32;19985;-87
2022/10/15 07:20:57;;;;;;;;;;;;;;;14.83;59.99;99938.25;4458064;32;20000;-88
2022/10/15 07:23:23;;;;;;;;;;;;;;;15.01;59.99;99927.75;4444421;32;20569;-88
2022/10/15 07:25:48;;;;;;;;;;;;;;;15.13;60.01;99925.44;4457474;32;23936;-87
2022/10/15 07:28:13;;;;;;;;;;;;;;;15.33;60.02;99925.34;4457022;32;29462;-87
2022/10/15 07:30:38;;;;;;;;;;;;;;;15.41;60.02;99920.59;4457778;32;19993;-88
2022/10/15 07:33:03;;;;;;;;;;;;;;;15.38;60.02;99923.38;4472059;32;20219;-88
2022/10/15 07:35:29;;;;;;;;;;;;;;;15.58;60.03;99914.50;4457096;32;29663;-88
2022/10/15 07:37:54;;;;;;;;;;;;;;;15.69;60.03;99914.00;4444927;32;19973;-88
2022/10/15 07:40:19;;;;;;;;;;;;;;;15.84;60.04;99910.59;4444803;32;19984;-88
2022/10/15 07:42:50;;;;;;;;;;;;;;;15.82;60.04;99912.44;4457763;32;20087;-88
2022/10/15 07:45:16;;;;;;;;;;;;;;;16.03;60.06;99910.50;4457470;32;20000;-88
2022/10/15 07:47:41;;;;;;;;;;;;;;;16.02;60.06;99914.91;4470306;32;33572;-89
2022/10/15 07:50:07;;;;;;;;;;;;;;;16.15;60.06;99912.50;4444727;32;20041;-88
2022/10/15 07:52:32;;;;;;;;;;;;;;;16.25;60.07;99917.19;4471627;32;19984;-89
2022/10/15 07:54:57;;;;;;;;;;;;;;;16.48;60.08;99913.31;4471559;32;19997;-89
2022/10/15 07:57:22;;;;;;;;;;;;;;;16.62;60.08;99906.50;4457005;32;27358;-88
2022/10/15 07:59:47;;;;;;;;;;;;;;;16.65;60.09;99917.69;4444275;32;22360;-89
2022/10/15 08:02:16;;;;;;;;;;;;;;;16.63;60.08;99926.59;4457462;32;19989;-88
2022/10/15 08:04:41;;;;;;;;;;;;;;;16.96;60.10;99934.44;4445360;32;19977;-90
2022/10/15 08:07:06;;;;;;;;;;;;;;;16.96;60.11;99926.53;4458701;32;19991;-89
2022/10/15 08:09:32;;;;;;;;;;;;;;;17.03;60.11;99928.75;4459338;32;25616;-89
2022/10/15 08:11:57;;;;;;;;;;;;;;;17.11;60.11;99939.69;4456772;32;19975;-89
2022/10/15 08:14:22;;;;;;;;;;;;;;;17.16;60.12;99942.91;4461524;32;20009;-89
2022/10/15 08:16:47;;;;;;;;;;;;;;;17.10;60.12;99931.91;4471135;32;28942;-90
2022/10/15 08:19:16;;;;;;;;;;;;;;;17.40;60.13;99934.56;4444319;32;20024;-90
2022/10/15 08:21:41;;;;;;;;;;;;;;;17.35;60.13;99929.56;4444580;32;20379;-90
2022/10/15 08:24:07;;;;;;;;;;;;;;;17.43;60.13;99927.34;4471475;32;19969;-90
2022/10/15 08:26:32;;;;;;;;;;;;;;;17.44;60.13;99936.09;4471538;32;20048;-90
2022/10/15 08:28:58;;;;;;;;;;;;;;;17.59;60.14;99935.22;4471301;32;19988;-90
2022/10/15 08:31:23;;;;;;;;;;;;;;;17.74;60.15;99933.50;4444206;32;20294;-91
2022/10/15 08:33:48;;;;;;;;;;;;;;;17.87;60.15;99929.22;4443537;32;31288;-90
2022/10/15 08:36:13;;;;;;;;;;;;;;;17.96;60.16;99933.91;4444210;32;20040;-90
2022/10/15 08:38:39;;;;;;;;;;;;;;;18.04;60.16;99930.84;4456744;32;20384;-89
2022/10/15 08:41:04;;;;;;;;;;;;;;;17.97;60.16;99929.50;4456839;32;19994;-90
2022/10/15 08:43:36;;;;;;;;;;;;;;;18.13;60.17;99926.81;4457011;32;19991;-90
2022/10/15 08:46:03;;;;;;;;;;;;;;;18.04;60.16;99929.06;4471334;32;20380;-90
2022/10/15 08:48:41;;;;;;;;;;;;;;;18.13;60.17;99934.72;4443925;32;20041;-90
2022/10/15 08:51:11;;;;;;;;;;;;;;;18.44;60.18;99931.03;4457247;32;20001;-90
2022/10/15 08:53:37;;;;;;;;;;;;;;;18.64;60.20;99926.28;4444160;32;20047;-90
2022/10/15 08:56:03;;;;;;;;;;;;;;;18.74;60.20;99925.72;4444059;32;20038;-90
2022/10/15 08:58:34;;;;;;;;;;;;;;;18.81;60.20;99927.00;4443865;32;19985;-89
2022/10/15 09:01:20;;;;;;;;;;;;;;;18.95;60.21;99925.22;4456975;32;20008;-91
2022/10/15 09:04:01;;;;;;;;;;;;;;;19.10;60.22;99930.44;4448178;32;19964;-91
2022/10/15 09:06:32;;;;;;;;;;;;;;;19.36;60.23;99915.53;4457444;32;20313;-91
2022/10/15 09:09:16;;;;;;;;;;;;;;;19.45;60.23;99907.03;4443159;32;20629;-91
2022/10/15 09:12:01;;;;;;;;;;;;;;;19.61;60.24;99918.28;4457261;32;20017;-90
2022/10/15 09:14:30;;;;;;;;;;;;;;;19.61;60.24;99926.22;4471465;32;20037;-90
2022/10/15 09:16:55;;;;;;;;;;;;;;;19.59;60.24;99925.47;4444257;32;20265;-90
2022/10/15 09:19:21;;;;;;;;;;;;;;;19.79;60.26;99935.56;4457445;32;19995;-91
2022/10/15 09:21:47;;;;;;;;;;;;;;;19.47;60.25;99937.66;4444797;32;19988;-91
2022/10/15 09:24:12;;;;;;;;;;;;;;;19.56;60.24;99942.34;4445106;32;19977;-91
2022/10/15 09:26:46;;;;;;;;;;;;;;;19.66;60.25;99942.63;4444722;32;20054;-92
2022/10/15 09:29:15;;;;;;;;;;;;;;;19.86;60.26;99943.91;4446804;32;20001;-91
2022/10/15 09:31:52;;;;;;;;;;;;;;;19.89;60.26;99944.56;4457471;32;20005;-91
2022/10/15 09:34:29;;;;;;;;;;;;;;;20.07;60.27;99936.31;4447667;32;19993;-91
2022/10/15 09:36:55;;;;;;;;;;;;;;;20.14;60.27;99942.91;4443939;32;19989;-91
2022/10/15 09:39:40;;;;;;;;;;;;;;;20.21;60.27;99944.16;4443944;32;20089;-93
2022/10/15 09:42:15;;;;;;;;;;;;;;;20.25;60.28;99937.72;4461853;32;19996;-94
2022/10/15 09:44:40;;;;;;;;;;;;;;;20.28;60.28;99932.22;4472730;32;19980;-92
2022/10/15 09:47:25;;;;;;;;;;;;;;;20.37;60.28;99936.03;4460357;32;20245;-91
2022/10/15 09:52:44;;;;;;;;;;;;;;;20.51;60.29;99931.47;4540268;26;20032;-88
2022/10/15 09:55:17;;;;;;;;;;;;;;;20.74;60.31;99923.72;4453593;32;19987;-90
2022/10/15 09:57:45;;;;;;;;;;;;;;;20.66;60.30;99931.38;4428699;32;19997;-94
2022/10/15 10:00:12;;;;;;;;;;;;;;;20.80;60.31;99928.56;4441553;32;19990;-95
2022/10/15 10:02:37;;;;;;;;;;;;;;;21.03;60.32;99927.75;4428714;32;20008;-94
2022/10/15 10:05:26;;;;;;;;;;;;;;;21.06;60.32;99929.38;4429027;32;20298;-95
2022/10/15 10:08:06;;;;;;;;;;;;;;;21.14;60.32;99930.50;4442897;32;19992;-94
2022/10/15 10:10:46;;;;;;;;;;;;;;;21.01;60.33;99924.37;4445305;32;19965;-96
2022/10/15 10:13:22;;;;;;;;;;;;;;;21.00;60.32;99933.28;4427900;32;20013;-87
2022/10/15 10:15:47;;;;;;;;;;;;;;;21.07;60.33;99923.13;4454517;32;20033;-88
2022/10/15 10:18:22;;;;;;;;;;;;;;;21.06;60.32;99921.44;4456864;32;22050;-88
2022/10/15 10:20:58;;;;;;;;;;;;;;;21.21;60.33;99920.28;4429957;32;20004;-95
2022/10/15 10:23:24;;;;;;;;;;;;;;;21.30;60.34;99927.63;4444546;32;20008;-93
2022/10/15 10:25:49;;;;;;;;;;;;;;;21.49;60.35;99918.28;4440014;32;20356;-92
2022/10/15 10:28:16;;;;;;;;;;;;;;;21.37;60.34;99914.75;4418159;32;19977;-92
2022/10/15 10:31:02;;;;;;;;;;;;;;;21.60;60.35;99910.41;4424990;32;19981;-91
2022/10/15 10:33:29;;;;;;;;;;;;;;;21.68;60.35;99913.31;4439246;32;20363;-91
2022/10/15 10:35:54;;;;;;;;;;;;;;;21.87;60.36;99899.50;4425388;32;19990;-91
2022/10/15 10:38:23;;;;;;;;;;;;;;;22.09;60.38;99896.94;4425133;32;20034;-93
2022/10/15 10:40:49;;;;;;;;;;;;;;;22.05;60.38;99888.38;4425842;32;20040;-93
2022/10/15 10:43:14;;;;;;;;;;;;;;;22.27;60.39;99895.50;4426443;32;20001;-93
2022/10/15 10:45:48;;;;;;;;;;;;;;;22.25;60.40;99884.19;4439077;32;20362;-93
2022/10/15 10:48:16;;;;;;;;;;;;;;;22.41;60.41;99885.63;4427421;32;20016;-93
2022/10/15 10:50:42;;;;;;;;;;;;;;;22.47;60.39;99875.34;4430563;32;19990;-92
2022/10/15 10:53:23;;;;;;;;;;;;;;;22.57;60.41;99875.47;4437347;32;20027;-93
2022/10/15 10:55:49;;;;;;;;;;;;;;;22.69;60.41;99879.78;4426920;32;19991;-92
2022/10/15 10:58:19;;;;;;;;;;;;;;;22.83;60.42;99884.88;4425174;32;19978;-93
2022/10/15 11:00:48;;;;;;;;;;;;;;;22.83;60.42;99884.88;4425335;32;20343;-93
2022/10/15 11:03:20;;;;;;;;;;;;;;;22.89;60.42;99884.38;4424747;32;19993;-89
2022/10/15 11:05:45;;;;;;;;;;;;;;;22.90;60.42;99882.56;4424855;32;19973;-90
2022/10/15 11:08:29;;;;;;;;;;;;;;;22.94;60.42;99878.69;4411255;32;19996;-90
2022/10/15 11:10:55;;;;;;;;;;;;;;;23.03;60.43;99869.16;4424300;32;19993;-90
2022/10/15 11:13:20;;;;;;;;;;;;;;;;;;4438359;32;19996;-90
2022/10/15 11:15:50;;;;;;;;;;;;;;;23.16;60.44;99867.16;4424056;32;20000;-90
2022/10/15 11:18:25;;;;;;;;;;;;;;;23.25;60.45;99867.25;4423816;32;20037;-88
2022/10/15 11:20:53;;;;;;;;;;;;;;;23.18;60.43;99862.56;4436736;32;20013;-89
2022/10/15 11:23:25;;;;;;;;;;;;;;;23.32;60.45;99850.81;4436466;32;19997;-91
2022/10/15 11:25:51;;;;;;;;;;;;;;;23.33;60.44;99848.03;4424078;32;20318;-90
2022/10/15 11:28:26;;;;;;;;;;;;;;;23.40;60.45;99841.22;4436114;32;20018;-90
2022/10/15 11:31:00;;;;;;;;;;;;;;;23.35;60.45;99830.12;4424166;32;20432;-89
2022/10/15 11:33:40;;;;;;;;;;;;;;;23.28;60.45;99835.13;4440570;32;19986;-91
2022/10/15 11:36:18;;;;;;;;;;;;;;;23.27;60.45;99828.13;4439420;32;20001;-90
2022/10/15 11:38:44;;;;;;;;;;;;;;;23.33;60.44;99823.28;4440443;32;19965;-90
2022/10/15 11:41:29;;;;;;;;;;;;;;;23.18;60.44;99822.72;4425569;32;19993;-89
2022/10/15 11:44:02;;;;;;;;;;;;;;;23.09;60.43;99820.84;4426132;32;20001;-90
2022/10/15 11:46:47;;;;;;;;;;;;;;;23.02;60.43;99820.53;4426140;32;20087;-90
2022/10/15 11:49:24;;;;;;;;;;;;;;;23.05;60.44;99822.06;4395406;32;19981;-91
2022/10/15 11:52:02;;;;;;;;;;;;;;;23.01;60.43;99820.66;4426851;32;20001;-90
2022/10/15 11:54:37;;;;;;;;;;;;;;;23.15;60.44;99818.53;4426463;32;20634;-90
2022/10/15 11:57:02;;;;;;;;;;;;;;;23.20;60.44;99820.81;4440815;32;19996;-93
2022/10/15 11:59:48;;;;;;;;;;;;;;;23.23;60.44;99817.91;4426599;32;19977;-92
2022/10/15 12:02:13;;;;;;;;;;;;;;;23.23;60.45;99824.06;4426351;32;20323;-91
2022/10/15 12:04:43;;;;;;;;;;;;;;;23.31;60.45;99827.88;4440808;32;19995;-90
2022/10/15 12:07:15;;;;;;;;;;;;;;;23.25;60.45;99830.09;4426304;32;20361;-91
2022/10/15 12:09:42;;;;;;;;;;;;;;;23.28;60.45;99818.34;4427812;32;19983;-89
2022/10/15 12:12:10;;;;;;;;;;;;;;;23.32;60.45;99810.97;4433730;32;20015;-88
2022/10/15 12:14:47;;;;;;;;;;;;;;;23.23;60.44;99815.25;4431010;32;20378;-89
2022/10/15 12:17:15;;;;;;;;;;;;;;;23.33;60.45;99810.84;4438141;32;19981;-89
2022/10/15 12:19:42;;;;;;;;;;;;;;;23.44;60.47;99808.13;4424590;32;19973;-89
2022/10/15 12:22:10;;;;;;;;;;;;;;;23.55;60.46;99802.75;4424923;32;19993;-89
2022/10/15 12:24:39;;;;;;;;;;;;;;;23.44;60.46;99797.50;4424832;32;20044;-88
2022/10/15 12:27:33;;;;;;;;;;;;;;;23.55;60.46;99804.56;4438637;32;20346;-90
2022/10/15 12:29:59;;;;;;;;;;;;;;;23.43;60.46;99803.78;4413081;32;20374;-91
2022/10/15 12:32:25;;;;;;;;;;;;;;;23.51;60.46;99803.97;4439181;32;19990;-90
2022/10/15 12:34:56;;;;;;;;;;;;;;;23.54;60.46;99810.84;4426490;32;19990;-90
2022/10/15 12:37:22;;;;;;;;;;;;;;;23.54;60.46;99803.72;4413601;32;20260;-90
2022/10/15 12:39:47;;;;;;;;;;;;;;;23.36;60.46;99801.75;4426379;32;19991;-91
2022/10/15 12:42:31;;;;;;;;;;;;;;;23.42;60.47;99803.91;4425923;32;19993;-90
2022/10/15 12:44:57;;;;;;;;;;;;;;;23.32;60.45;99803.84;4425918;32;19981;-89
2022/10/15 12:47:41;;;;;;;;;;;;;;;23.35;60.46;99789.47;4425990;32;20024;-89
2022/10/15 12:50:14;;;;;;;;;;;;;;;23.23;60.45;99799.31;4426270;32;20025;-90
2022/10/15 12:52:49;;;;;;;;;;;;;;;23.18;60.44;99790.88;4426126;32;20005;-90
2022/10/15 12:55:19;;;;;;;;;;;;;;;22.90;60.43;99793.16;4425715;32;19989;-89